createdAt,value
2023-03-28T00:02:22.492Z,6.24
2023-03-28T00:04:49.893Z,6.12
2023-03-28T00:07:16.992Z,6.09
2023-03-28T00:09:44.514Z,6.08
2023-03-28T00:12:11.686Z,6.12
2023-03-28T00:14:38.808Z,6.09
2023-03-28T00:17:07.924Z,5.87
2023-03-28T00:19:40.505Z,5.90
2023-03-28T00:22:08.522Z,5.92
2023-03-28T00:24:38.788Z,5.97
2023-03-28T00:27:07.180Z,5.67
2023-03-28T00:29:34.544Z,5.54
2023-03-28T00:32:02.148Z,5.35
2023-03-28T00:34:29.327Z,5.25
2023-03-28T00:36:56.428Z,5.31
2023-03-28T00:39:23.750Z,5.06
2023-03-28T00:41:51.150Z,5.05
2023-03-28T00:44:53.810Z,4.97
2023-03-28T00:47:40.674Z,4.91
2023-03-28T00:50:27.458Z,4.82
2023-03-28T00:53:06.271Z,4.80
2023-03-28T00:55:50.754Z,4.74
2023-03-28T00:58:23.144Z,4.43
2023-03-28T01:00:54.914Z,4.40
2023-03-28T01:03:28.721Z,4.42
2023-03-28T01:05:57.417Z,4.39
2023-03-28T01:08:36.193Z,4.36
2023-03-28T01:11:04.552Z,4.54
2023-03-28T01:13:35.200Z,4.53
2023-03-28T01:16:04.470Z,4.41
2023-03-28T01:18:34.918Z,4.32
2023-03-28T01:21:05.155Z,4.05
2023-03-28T01:23:51.050Z,3.79
2023-03-28T01:26:38.859Z,3.55
2023-03-28T01:29:48.834Z,3.37
2023-03-28T01:32:31.904Z,3.45
2023-03-28T01:35:33.858Z,3.31
2023-03-28T01:38:13.195Z,3.25
2023-03-28T01:40:54.788Z,3.12
2023-03-28T01:43:34.508Z,3.02
2023-03-28T01:46:23.598Z,3.08
2023-03-28T01:49:19.083Z,3.24
2023-03-28T01:51:58.513Z,3.08
2023-03-28T01:54:35.604Z,2.97
2023-03-28T01:57:24.487Z,3.01
2023-03-28T02:00:29.276Z,2.96
2023-03-28T02:03:14.329Z,2.96
2023-03-28T02:05:52.746Z,3.05
2023-03-28T02:08:21.976Z,2.98
2023-03-28T02:10:56.820Z,3.03
2023-03-28T02:13:45.726Z,3.02
2023-03-28T02:16:37.042Z,3.07
2023-03-28T02:19:58.538Z,2.91
2023-03-28T02:22:54.204Z,2.85
2023-03-28T02:25:50.689Z,2.70
2023-03-28T02:28:38.270Z,2.67
2023-03-28T02:31:09.987Z,2.61
2023-03-28T02:33:43.257Z,2.64
2023-03-28T02:36:53.643Z,2.76
2023-03-28T02:39:33.521Z,2.88
2023-03-28T02:42:29.870Z,2.92
2023-03-28T02:45:16.434Z,3.01
2023-03-28T02:48:11.539Z,3.10
2023-03-28T02:51:04.217Z,3.20
2023-03-28T02:53:49.818Z,3.23
2023-03-28T02:56:44.571Z,3.24
2023-03-28T02:59:27.633Z,3.22
2023-03-28T03:01:54.913Z,3.18
2023-03-28T03:04:22.090Z,3.12
2023-03-28T03:06:49.284Z,3.14
2023-03-28T03:09:17.800Z,3.08
2023-03-28T03:11:44.956Z,3.02
2023-03-28T03:14:12.517Z,2.92
2023-03-28T03:16:39.920Z,2.81
2023-03-28T03:19:07.877Z,2.67
2023-03-28T03:21:36.989Z,2.58
2023-03-28T03:24:04.466Z,2.50
2023-03-28T03:26:32.096Z,2.43
2023-03-28T03:29:02.921Z,2.36
2023-03-28T03:31:32.634Z,2.33
2023-03-28T03:34:18.684Z,2.19
2023-03-28T03:36:54.742Z,2.09
2023-03-28T03:39:22.405Z,2.01
2023-03-28T03:41:49.631Z,2.02
2023-03-28T03:44:16.793Z,2.08
2023-03-28T03:46:44.098Z,2.00
2023-03-28T03:49:11.462Z,2.06
2023-03-28T03:51:39.458Z,2.06
2023-03-28T03:54:07.213Z,2.02
2023-03-28T03:56:37.944Z,1.99
2023-03-28T03:59:05.915Z,2.03
2023-03-28T04:01:36.313Z,2.01
2023-03-28T04:04:22.984Z,1.85
2023-03-28T04:07:08.369Z,1.95
2023-03-28T04:09:36.270Z,1.93
2023-03-28T04:12:08.697Z,1.86
2023-03-28T04:14:52.601Z,1.77
2023-03-28T04:17:29.915Z,1.79
2023-03-28T04:19:59.090Z,1.80
2023-03-28T04:22:29.823Z,1.63
2023-03-28T04:24:57.675Z,1.51
2023-03-28T04:27:39.416Z,1.42
2023-03-28T04:30:07.431Z,1.57
2023-03-28T04:33:06.969Z,1.62
2023-03-28T04:35:38.803Z,1.65
2023-03-28T04:38:06.083Z,1.56
2023-03-28T04:40:33.439Z,1.56
2023-03-28T04:43:15.519Z,1.38
2023-03-28T04:45:49.116Z,1.36
2023-03-28T04:48:18.307Z,1.30
2023-03-28T04:50:46.056Z,1.26
2023-03-28T04:53:16.069Z,1.24
2023-03-28T04:56:03.186Z,1.11
2023-03-28T04:58:31.810Z,0.97
2023-03-28T05:01:03.642Z,0.93
2023-03-28T05:03:59.817Z,0.95
2023-03-28T05:06:27.031Z,0.97
2023-03-28T05:08:54.214Z,1.07
2023-03-28T05:11:26.186Z,1.25
2023-03-28T05:13:53.331Z,1.18
2023-03-28T05:16:29.391Z,1.08
2023-03-28T05:19:28.433Z,0.98
2023-03-28T05:22:03.865Z,1.11
2023-03-28T05:24:31.633Z,1.25
2023-03-28T05:26:58.888Z,1.25
2023-03-28T05:29:26.840Z,1.25
2023-03-28T05:31:54.276Z,1.05
2023-03-28T05:34:28.264Z,1.01
2023-03-28T05:36:57.146Z,1.07
2023-03-28T05:39:37.551Z,1.23
2023-03-28T05:42:08.781Z,1.23
2023-03-28T05:44:38.481Z,1.31
2023-03-28T05:47:29.359Z,1.41
2023-03-28T05:49:58.180Z,1.57
2023-03-28T05:52:27.371Z,1.80
2023-03-28T05:54:58.205Z,1.88
2023-03-28T05:57:25.517Z,1.97
2023-03-28T05:59:54.420Z,2.08
2023-03-28T06:02:24.422Z,2.22
2023-03-28T06:04:57.849Z,2.19
2023-03-28T06:07:39.403Z,2.15
2023-03-28T06:10:13.138Z,2.33
2023-03-28T06:12:42.917Z,2.60
2023-03-28T06:15:11.872Z,2.75
2023-03-28T06:17:42.886Z,2.92
2023-03-28T06:20:10.730Z,3.03
2023-03-28T06:22:38.498Z,3.10
2023-03-28T06:25:10.887Z,3.23
2023-03-28T06:27:38.140Z,3.31
2023-03-28T06:30:06.132Z,3.49
2023-03-28T06:32:42.429Z,3.63
2023-03-28T06:35:10.009Z,3.75
2023-03-28T06:37:37.905Z,3.95
2023-03-28T06:40:09.853Z,4.00
2023-03-28T06:42:37.351Z,4.21
2023-03-28T06:45:33.697Z,4.32
2023-03-28T06:48:05.815Z,4.43
2023-03-28T06:50:54.292Z,4.60
2023-03-28T06:53:23.954Z,4.73
2023-03-28T06:55:52.022Z,4.85
2023-03-28T06:58:20.928Z,4.94
2023-03-28T07:00:59.734Z,5.03
2023-03-28T07:03:52.167Z,5.34
2023-03-28T07:06:22.037Z,5.52
2023-03-28T07:08:49.474Z,5.70
2023-03-28T07:11:20.584Z,5.82
2023-03-28T07:13:50.910Z,6.00
2023-03-28T07:16:19.879Z,6.19
2023-03-28T07:18:48.826Z,6.34
2023-03-28T07:21:21.737Z,6.50
2023-03-28T07:23:48.894Z,6.71
2023-03-28T07:26:20.215Z,7.02
2023-03-28T07:28:47.411Z,7.11
2023-03-28T07:31:15.685Z,7.30
2023-03-28T07:33:43.150Z,7.57
2023-03-28T07:36:18.298Z,7.71
2023-03-28T07:38:49.909Z,7.96
2023-03-28T07:41:18.820Z,8.19
2023-03-28T07:43:45.909Z,8.39
2023-03-28T07:46:15.085Z,8.52
2023-03-28T07:48:43.002Z,8.67
2023-03-28T07:51:11.078Z,8.97
2023-03-28T07:53:39.531Z,9.17
2023-03-28T07:56:10.521Z,9.28
2023-03-28T07:58:56.916Z,9.53
2023-03-28T08:01:25.033Z,9.73
2023-03-28T08:04:03.471Z,9.88
2023-03-28T08:06:42.939Z,10.06
2023-03-28T08:09:13.206Z,10.22
2023-03-28T08:11:43.914Z,10.44
2023-03-28T08:14:13.797Z,10.59
2023-03-28T08:16:41.579Z,10.49
2023-03-28T08:19:11.792Z,10.63
2023-03-28T08:21:58.849Z,10.72
2023-03-28T08:24:35.316Z,11.10
2023-03-28T08:27:10.591Z,11.27
2023-03-28T08:29:37.843Z,11.06
2023-03-28T08:32:06.417Z,11.16
2023-03-28T08:34:34.527Z,11.33
2023-03-28T08:37:07.809Z,11.32
2023-03-28T08:39:37.362Z,11.33
2023-03-28T08:42:29.314Z,11.53
2023-03-28T08:45:19.479Z,11.79
2023-03-28T08:48:05.263Z,12.02
2023-03-28T08:50:34.911Z,12.08
2023-03-28T08:53:04.043Z,11.95
2023-03-28T08:55:37.866Z,12.06
2023-03-28T08:58:07.088Z,12.26
2023-03-28T09:00:38.969Z,12.44
2023-03-28T09:03:12.617Z,12.45
2023-03-28T09:05:51.890Z,12.52
2023-03-28T09:08:25.204Z,12.63
2023-03-28T09:11:21.652Z,12.63
2023-03-28T09:14:24.435Z,12.94
2023-03-28T09:17:01.366Z,13.04
2023-03-28T09:19:49.810Z,12.77
2023-03-28T09:22:53.094Z,12.88
2023-03-28T09:25:23.696Z,13.05
2023-03-28T09:28:30.044Z,13.19
2023-03-28T09:30:59.441Z,13.12
2023-03-28T09:33:33.137Z,13.42
2023-03-28T09:36:03.252Z,13.30
2023-03-28T09:38:38.188Z,13.59
2023-03-28T09:41:13.317Z,13.70
2023-03-28T09:43:52.725Z,13.79
2023-03-28T09:46:41.401Z,13.75
2023-03-28T09:49:23.833Z,13.86
2023-03-28T09:51:58.866Z,13.90
2023-03-28T09:54:44.394Z,13.83
2023-03-28T09:57:11.885Z,13.72
2023-03-28T09:59:51.529Z,14.10
2023-03-28T10:02:27.273Z,14.29
2023-03-28T10:04:55.676Z,14.04
2023-03-28T10:07:45.198Z,14.29
2023-03-28T10:10:34.960Z,13.94
2023-03-28T10:13:10.521Z,14.21
2023-03-28T10:15:42.716Z,14.42
2023-03-28T10:18:25.062Z,14.31
2023-03-28T10:21:23.983Z,14.59
2023-03-28T10:24:07.301Z,14.81
2023-03-28T10:26:35.727Z,15.09
2023-03-28T10:29:08.564Z,14.79
2023-03-28T10:31:39.579Z,14.74
2023-03-28T10:34:27.062Z,15.12
2023-03-28T10:37:25.933Z,14.96
2023-03-28T10:40:32.653Z,15.06
2023-03-28T10:43:18.673Z,15.05
2023-03-28T10:46:32.730Z,15.21
2023-03-28T10:49:16.636Z,15.34
2023-03-28T10:51:50.312Z,15.53
2023-03-28T10:54:31.486Z,15.77
2023-03-28T10:57:11.480Z,15.56
2023-03-28T10:59:51.669Z,15.64
2023-03-28T11:02:28.070Z,15.80
2023-03-28T11:05:29.722Z,15.85
2023-03-28T11:08:00.690Z,15.81
2023-03-28T11:10:52.330Z,15.97
2023-03-28T11:13:37.431Z,16.21
2023-03-28T11:16:15.657Z,16.16
2023-03-28T11:19:11.264Z,16.33
2023-03-28T11:22:09.613Z,16.21
2023-03-28T11:25:18.898Z,16.30
2023-03-28T11:28:27.076Z,16.42
2023-03-28T11:31:05.178Z,16.55
2023-03-28T11:33:58.246Z,16.52
2023-03-28T11:36:34.065Z,16.35
2023-03-28T11:39:11.791Z,16.96
2023-03-28T11:41:41.440Z,16.71
2023-03-28T11:44:47.474Z,16.39
2023-03-28T11:47:28.415Z,16.69
2023-03-28T11:50:17.052Z,16.60
2023-03-28T11:53:14.402Z,16.52
2023-03-28T11:56:06.786Z,16.91
2023-03-28T11:59:04.867Z,17.05
2023-03-28T12:01:38.985Z,16.81
2023-03-28T12:04:58.653Z,16.70
2023-03-28T12:07:34.426Z,17.15
2023-03-28T12:10:24.798Z,16.94
2023-03-28T12:13:08.502Z,16.86
2023-03-28T12:15:53.326Z,16.55
2023-03-28T12:18:31.154Z,16.52
2023-03-28T12:21:11.694Z,16.80
2023-03-28T12:24:03.788Z,17.04
2023-03-28T12:26:56.044Z,17.24
2023-03-28T12:29:46.335Z,17.22
2023-03-28T12:32:25.999Z,16.81
2023-03-28T12:35:15.254Z,17.05
2023-03-28T12:38:20.627Z,17.09
2023-03-28T12:40:55.734Z,17.42
2023-03-28T12:43:31.310Z,17.17
2023-03-28T12:46:03.280Z,17.15
2023-03-28T12:48:39.081Z,16.96
2023-03-28T12:51:25.340Z,16.98
2023-03-28T12:54:22.597Z,17.44
2023-03-28T12:57:08.592Z,17.55
2023-03-28T13:00:06.862Z,17.78
2023-03-28T13:03:05.526Z,17.84
2023-03-28T13:05:44.698Z,17.92
2023-03-28T13:08:46.457Z,17.73
2023-03-28T13:12:20.667Z,17.87
2023-03-28T13:15:27.208Z,17.43
2023-03-28T13:18:22.043Z,17.69
2023-03-28T13:20:53.980Z,17.65
2023-03-28T13:23:33.681Z,18.05
2023-03-28T13:26:03.538Z,18.37
2023-03-28T13:28:42.453Z,18.61
2023-03-28T13:31:19.248Z,18.51
2023-03-28T13:33:55.590Z,17.88
2023-03-28T13:36:25.417Z,18.00
2023-03-28T13:38:59.250Z,18.29
2023-03-28T13:41:53.677Z,18.17
2023-03-28T13:44:42.093Z,18.52
2023-03-28T13:47:16.598Z,18.22
2023-03-28T13:49:51.189Z,18.35
2023-03-28T13:52:22.348Z,18.52
2023-03-28T13:54:54.182Z,18.70
2023-03-28T13:57:26.370Z,18.36
2023-03-28T14:00:04.820Z,18.70
2023-03-28T14:02:48.084Z,18.62
2023-03-28T14:05:21.751Z,18.96
2023-03-28T14:07:50.139Z,19.07
2023-03-28T14:10:39.175Z,18.49
2023-03-28T14:13:12.078Z,18.69
2023-03-28T14:15:40.963Z,18.51
2023-03-28T14:18:16.370Z,18.45
2023-03-28T14:20:45.688Z,18.89
2023-03-28T14:23:58.585Z,19.28
2023-03-28T14:26:29.395Z,19.05
2023-03-28T14:29:14.492Z,18.81
2023-03-28T14:31:46.226Z,19.44
2023-03-28T14:34:26.120Z,20.69
2023-03-28T14:36:58.831Z,21.90
2023-03-28T14:39:31.322Z,22.66
2023-03-28T14:42:03.788Z,23.46
2023-03-28T14:44:35.333Z,24.84
2023-03-28T14:47:03.330Z,25.39
2023-03-28T14:49:30.765Z,25.02
2023-03-28T14:51:59.840Z,25.69
2023-03-28T14:54:34.332Z,26.11
2023-03-28T14:57:04.986Z,25.01
2023-03-28T14:59:41.148Z,25.96
2023-03-28T15:02:29.716Z,27.33
2023-03-28T15:05:03.534Z,26.35
2023-03-28T15:07:34.116Z,27.05
2023-03-28T15:10:11.748Z,27.58
2023-03-28T15:12:44.716Z,27.89
2023-03-28T15:15:22.490Z,29.13
2023-03-28T15:17:51.790Z,29.24
2023-03-28T15:20:23.472Z,28.29
2023-03-28T15:22:56.719Z,27.29
2023-03-28T15:25:24.686Z,27.18
2023-03-28T15:27:56.675Z,27.96
2023-03-28T15:30:24.887Z,27.57
2023-03-28T15:32:59.390Z,28.14
2023-03-28T15:35:36.644Z,28.05
2023-03-28T15:38:26.714Z,28.74
2023-03-28T15:41:23.842Z,28.89
2023-03-28T15:43:53.671Z,28.90
2023-03-28T15:46:22.755Z,28.43
2023-03-28T15:48:49.966Z,27.68
2023-03-28T15:51:18.844Z,25.38
2023-03-28T15:53:48.731Z,24.39
2023-03-28T15:56:33.858Z,22.24
2023-03-28T15:59:17.787Z,19.90
2023-03-28T16:01:45.178Z,19.27
2023-03-28T16:04:28.772Z,18.27
2023-03-28T16:07:09.284Z,17.80
2023-03-28T16:09:42.790Z,17.26
2023-03-28T16:12:14.709Z,17.07
2023-03-28T16:14:48.763Z,17.10
2023-03-28T16:17:36.035Z,17.48
2023-03-28T16:20:25.295Z,18.21
2023-03-28T16:22:52.728Z,18.59
2023-03-28T16:25:19.837Z,19.16
2023-03-28T16:27:46.914Z,19.28
2023-03-28T16:30:26.516Z,18.56
2023-03-28T16:32:53.949Z,17.94
2023-03-28T16:35:22.548Z,17.64
2023-03-28T16:37:49.750Z,17.29
2023-03-28T16:40:17.320Z,16.63
2023-03-28T16:42:44.434Z,16.59
2023-03-28T16:45:13.034Z,16.68
2023-03-28T16:47:41.435Z,16.67
2023-03-28T16:50:09.938Z,16.64
2023-03-28T16:52:44.949Z,16.51
2023-03-28T16:55:17.155Z,16.45
2023-03-28T16:57:44.690Z,15.93
2023-03-28T17:00:18.480Z,15.72
2023-03-28T17:02:47.589Z,15.29
2023-03-28T17:05:16.088Z,15.26
2023-03-28T17:07:43.305Z,15.07
2023-03-28T17:10:11.089Z,14.94
2023-03-28T17:12:38.254Z,14.73
2023-03-28T17:15:06.645Z,14.47
2023-03-28T17:17:33.907Z,14.27
2023-03-28T17:20:01.293Z,14.05
2023-03-28T17:22:28.439Z,13.81
2023-03-28T17:24:57.086Z,13.54
2023-03-28T17:27:24.295Z,13.25
2023-03-28T17:29:51.790Z,13.04
2023-03-28T17:32:19.155Z,12.92
2023-03-28T17:34:47.573Z,12.75
2023-03-28T17:37:14.778Z,12.55
2023-03-28T17:39:42.365Z,12.32
2023-03-28T17:42:10.184Z,11.94
2023-03-28T17:44:37.296Z,11.77
2023-03-28T17:47:04.567Z,11.63
2023-03-28T17:49:31.817Z,11.45
2023-03-28T17:52:00.045Z,11.36
2023-03-28T17:54:27.526Z,11.28
2023-03-28T17:56:54.849Z,11.17
2023-03-28T17:59:22.310Z,11.05
2023-03-28T18:01:49.808Z,10.89
2023-03-28T18:04:17.648Z,10.73
2023-03-28T18:07:16.284Z,10.60
2023-03-28T18:09:45.305Z,10.41
2023-03-28T18:12:13.237Z,10.26
2023-03-28T18:14:40.479Z,10.16
2023-03-28T18:17:08.433Z,10.08
2023-03-28T18:19:35.737Z,9.98
2023-03-28T18:22:03.271Z,9.90
2023-03-28T18:24:30.609Z,9.77
2023-03-28T18:26:59.112Z,9.80
2023-03-28T18:29:26.325Z,9.77
2023-03-28T18:31:53.429Z,9.63
2023-03-28T18:34:20.633Z,9.50
2023-03-28T18:36:48.156Z,9.40
2023-03-28T18:39:15.396Z,9.32
2023-03-28T18:41:42.538Z,9.33
2023-03-28T18:44:10.527Z,9.31
2023-03-28T18:46:37.675Z,9.27
2023-03-28T18:49:04.802Z,9.22
2023-03-28T18:51:32.191Z,9.15
2023-03-28T18:54:00.212Z,9.15
2023-03-28T18:56:27.530Z,9.10
2023-03-28T18:58:54.584Z,9.09
2023-03-28T19:01:23.222Z,9.16
2023-03-28T19:03:51.298Z,9.05
2023-03-28T19:06:18.462Z,8.95
2023-03-28T19:08:45.910Z,8.89
2023-03-28T19:11:16.600Z,8.85
2023-03-28T19:13:43.990Z,8.85
2023-03-28T19:16:14.110Z,8.80
2023-03-28T19:18:43.868Z,8.79
2023-03-28T19:21:11.852Z,8.79
2023-03-28T19:23:39.727Z,8.70
2023-03-28T19:26:09.065Z,8.60
2023-03-28T19:28:36.279Z,8.53
2023-03-28T19:31:08.999Z,8.52
2023-03-28T19:33:37.545Z,8.38
2023-03-28T19:36:06.181Z,8.26
2023-03-28T19:38:35.400Z,8.12
2023-03-28T19:41:09.332Z,8.25
2023-03-28T19:43:37.890Z,8.26
2023-03-28T19:46:07.598Z,8.09
2023-03-28T19:48:35.892Z,7.93
2023-03-28T19:51:03.662Z,7.88
2023-03-28T19:53:30.801Z,7.85
2023-03-28T19:55:59.826Z,7.75
2023-03-28T19:58:28.302Z,7.60
2023-03-28T20:00:56.904Z,7.42
2023-03-28T20:03:24.774Z,7.41
2023-03-28T20:05:51.905Z,7.27
2023-03-28T20:08:19.326Z,7.21
2023-03-28T20:10:48.979Z,7.21
2023-03-28T20:13:17.248Z,7.17
2023-03-28T20:15:45.664Z,7.14
2023-03-28T20:18:19.661Z,7.05
2023-03-28T20:20:55.416Z,7.03
2023-03-28T20:23:24.144Z,7.01
2023-03-28T20:25:52.937Z,7.03
2023-03-28T20:28:21.348Z,6.93
2023-03-28T20:30:48.494Z,6.78
2023-03-28T20:33:15.563Z,6.58
2023-03-28T20:35:51.045Z,6.57
2023-03-28T20:38:18.204Z,6.49
2023-03-28T20:40:45.318Z,6.45
2023-03-28T20:43:20.397Z,6.29
2023-03-28T20:45:53.970Z,6.09
2023-03-28T20:48:25.921Z,5.99
2023-03-28T20:50:55.604Z,5.93
2023-03-28T20:53:22.820Z,6.05
2023-03-28T20:56:00.328Z,5.99
2023-03-28T20:58:29.520Z,5.92
2023-03-28T21:00:58.020Z,5.83
2023-03-28T21:03:39.133Z,5.84
2023-03-28T21:06:07.725Z,5.84
2023-03-28T21:08:36.260Z,5.83
2023-03-28T21:11:03.628Z,5.76
2023-03-28T21:13:31.242Z,5.65
2023-03-28T21:15:58.423Z,5.60
2023-03-28T21:18:26.086Z,5.51
2023-03-28T21:20:53.254Z,5.33
2023-03-28T21:23:20.799Z,5.27
2023-03-28T21:25:52.650Z,5.38
2023-03-28T21:28:19.878Z,5.39
2023-03-28T21:30:58.792Z,5.06
2023-03-28T21:33:26.696Z,4.81
2023-03-28T21:35:54.711Z,4.64
2023-03-28T21:38:21.892Z,4.64
2023-03-28T21:40:50.043Z,4.72
2023-03-28T21:43:17.287Z,4.77
2023-03-28T21:45:47.876Z,4.72
2023-03-28T21:48:15.784Z,4.70
2023-03-28T21:50:51.560Z,4.61
2023-03-28T21:53:18.675Z,4.73
2023-03-28T21:55:45.908Z,4.83
2023-03-28T21:58:13.685Z,4.88
2023-03-28T22:00:40.796Z,4.91
2023-03-28T22:03:08.070Z,4.95
2023-03-28T22:05:42.510Z,4.94
2023-03-28T22:08:12.334Z,4.88
2023-03-28T22:10:48.961Z,4.95
2023-03-28T22:13:16.329Z,4.94
2023-03-28T22:15:43.573Z,4.88
2023-03-28T22:18:11.271Z,4.83
2023-03-28T22:20:39.940Z,4.60
2023-03-28T22:23:07.723Z,4.58
2023-03-28T22:25:38.670Z,4.62
2023-03-28T22:28:09.893Z,4.64
2023-03-28T22:30:38.880Z,4.65
2023-03-28T22:33:08.980Z,4.71
2023-03-28T22:35:36.536Z,4.68
2023-03-28T22:38:03.936Z,4.54
2023-03-28T22:40:31.707Z,4.36
2023-03-28T22:42:59.204Z,4.25
2023-03-28T22:45:27.014Z,4.40
2023-03-28T22:47:54.485Z,4.53
2023-03-28T22:50:22.411Z,4.50
2023-03-28T22:52:52.881Z,4.37
2023-03-28T22:55:22.463Z,4.27
2023-03-28T22:57:51.660Z,4.24
2023-03-28T23:00:23.151Z,4.22
2023-03-28T23:02:52.319Z,4.10
2023-03-28T23:05:19.873Z,3.98
2023-03-28T23:07:47.541Z,3.93
2023-03-28T23:10:19.041Z,3.95
2023-03-28T23:12:47.218Z,4.02
2023-03-28T23:15:14.846Z,4.00
2023-03-28T23:17:42.795Z,4.00
2023-03-28T23:20:14.849Z,3.97
2023-03-28T23:22:43.908Z,3.87
2023-03-28T23:25:12.650Z,3.87
2023-03-28T23:27:40.508Z,3.92
2023-03-28T23:30:12.356Z,3.91
2023-03-28T23:32:39.639Z,3.83
2023-03-28T23:35:09.772Z,3.78
2023-03-28T23:37:38.150Z,3.86
2023-03-28T23:40:10.405Z,4.06
2023-03-28T23:42:37.592Z,4.16
2023-03-28T23:45:05.042Z,4.06
2023-03-28T23:47:32.224Z,4.03
2023-03-28T23:49:59.462Z,3.91
2023-03-28T23:52:27.095Z,3.78
2023-03-28T23:54:54.294Z,3.71
2023-03-28T23:57:24.923Z,3.63
2023-03-28T23:59:52.147Z,3.48
